createdAt,value
2023-11-15T00:00:26.874Z,100713.97
2023-11-15T00:02:53.423Z,100709.34
2023-11-15T00:05:20.112Z,100720.03
2023-11-15T00:07:46.759Z,100719.19
2023-11-15T00:10:14.809Z,100713.16
2023-11-15T00:12:41.727Z,100717.81
2023-11-15T00:15:10.479Z,100720.00
2023-11-15T00:17:37.336Z,100721.66
2023-11-15T00:20:05.249Z,100726.56
2023-11-15T00:22:32.607Z,100734.63
2023-11-15T00:24:59.175Z,100737.78
2023-11-15T00:27:26.292Z,100752.78
2023-11-15T00:29:53.948Z,100750.84
2023-11-15T00:32:21.867Z,100748.06
2023-11-15T00:34:48.792Z,100750.47
2023-11-15T00:37:15.453Z,100751.75
2023-11-15T00:39:42.751Z,100758.78
2023-11-15T00:42:09.317Z,100758.91
2023-11-15T00:44:36.481Z,100763.47
2023-11-15T00:47:04.513Z,100769.41
2023-11-15T00:49:33.303Z,100765.94
2023-11-15T00:51:59.879Z,100767.88
2023-11-15T00:54:26.580Z,100777.63
2023-11-15T00:56:56.900Z,100793.00
2023-11-15T00:59:27.621Z,100793.59
2023-11-15T01:02:00.696Z,100788.84
2023-11-15T01:04:27.538Z,100790.03
2023-11-15T01:06:55.577Z,100797.28
2023-11-15T01:09:24.646Z,100795.19
2023-11-15T01:11:54.112Z,100805.31
2023-11-15T01:14:21.591Z,100807.19
2023-11-15T01:16:48.443Z,100804.28
2023-11-15T01:19:15.215Z,100798.31
2023-11-15T01:21:42.121Z,100801.56
2023-11-15T01:24:10.335Z,100814.31
2023-11-15T01:26:36.945Z,100821.78
2023-11-15T01:29:03.645Z,100824.03
2023-11-15T01:31:30.240Z,100824.00
2023-11-15T01:33:56.920Z,100838.84
2023-11-15T01:36:24.559Z,100832.19
2023-11-15T01:38:52.122Z,100845.00
2023-11-15T01:41:20.135Z,100835.69
2023-11-15T01:43:46.998Z,100842.25
2023-11-15T01:46:15.934Z,100850.50
2023-11-15T01:48:42.752Z,100851.66
2023-11-15T01:51:09.944Z,100859.09
2023-11-15T01:53:36.821Z,100858.78
2023-11-15T01:56:04.726Z,100866.75
2023-11-15T01:58:33.106Z,100861.78
2023-11-15T02:01:00.212Z,100862.00
2023-11-15T02:03:26.945Z,100864.59
2023-11-15T02:05:54.348Z,100875.56
2023-11-15T02:08:21.021Z,100868.00
2023-11-15T02:10:47.814Z,100866.56
2023-11-15T02:13:21.603Z,100870.13
2023-11-15T02:15:49.684Z,100883.69
2023-11-15T02:18:18.661Z,100888.28
2023-11-15T02:20:45.342Z,100890.53
2023-11-15T02:23:13.368Z,100901.56
2023-11-15T02:25:41.895Z,100892.59
2023-11-15T02:28:09.180Z,100896.88
2023-11-15T02:30:35.648Z,100895.28
2023-11-15T02:33:02.363Z,100902.03
2023-11-15T02:35:29.118Z,100908.09
2023-11-15T02:37:55.753Z,100908.00
2023-11-15T02:40:22.350Z,100911.38
2023-11-15T02:42:50.233Z,100915.41
2023-11-15T02:45:17.592Z,100912.59
2023-11-15T02:47:44.404Z,100918.78
2023-11-15T02:50:11.300Z,100921.94
2023-11-15T02:52:38.145Z,100920.28
2023-11-15T02:55:05.326Z,100940.19
2023-11-15T02:57:31.973Z,100932.88
2023-11-15T02:59:59.961Z,100934.09
2023-11-15T03:02:26.631Z,100943.75
2023-11-15T03:04:53.243Z,100946.63
2023-11-15T03:07:19.836Z,100944.19
2023-11-15T03:09:46.559Z,100943.75
2023-11-15T03:12:13.151Z,100949.91
2023-11-15T03:14:39.999Z,100954.03
2023-11-15T03:17:13.635Z,100947.38
2023-11-15T03:19:40.211Z,100948.50
2023-11-15T03:22:06.846Z,100957.28
2023-11-15T03:24:33.436Z,100940.44
2023-11-15T03:27:00.054Z,100963.84
2023-11-15T03:29:26.717Z,100968.53
2023-11-15T03:31:53.424Z,100969.44
2023-11-15T03:34:21.696Z,100963.41
2023-11-15T03:36:48.276Z,100976.78
2023-11-15T03:39:16.416Z,100973.88
2023-11-15T03:41:43.073Z,100981.81
2023-11-15T03:44:09.639Z,100983.31
2023-11-15T03:46:36.264Z,100976.78
2023-11-15T03:49:03.173Z,100979.09
2023-11-15T03:51:31.490Z,100983.16
2023-11-15T03:53:58.336Z,100977.91
2023-11-15T03:56:25.326Z,100988.38
2023-11-15T03:58:52.046Z,100992.06
2023-11-15T04:01:19.629Z,100979.34
2023-11-15T04:03:46.940Z,100989.81
2023-11-15T04:06:13.753Z,100993.69
2023-11-15T04:08:42.166Z,100984.53
2023-11-15T04:11:09.199Z,100995.94
2023-11-15T04:13:36.336Z,101007.47
2023-11-15T04:16:04.415Z,101006.44
2023-11-15T04:18:32.082Z,101002.53
2023-11-15T04:20:58.781Z,101014.81
2023-11-15T04:23:25.714Z,101005.44
2023-11-15T04:25:53.652Z,101008.19
2023-11-15T04:28:20.542Z,101002.19
2023-11-15T04:30:47.083Z,101003.97
2023-11-15T04:33:13.847Z,101013.28
2023-11-15T04:35:40.639Z,101024.97
2023-11-15T04:38:10.201Z,101015.28
2023-11-15T04:40:38.302Z,101022.94
2023-11-15T04:43:06.558Z,101032.41
2023-11-15T04:45:33.783Z,101034.38
2023-11-15T04:48:00.565Z,101031.84
2023-11-15T04:50:27.172Z,101042.00
2023-11-15T04:52:56.909Z,101040.91
2023-11-15T04:55:25.027Z,101034.25
2023-11-15T04:57:51.572Z,101044.91
2023-11-15T05:00:20.289Z,101043.16
2023-11-15T05:02:47.096Z,101035.66
2023-11-15T05:05:15.619Z,101040.22
2023-11-15T05:07:42.273Z,101046.22
2023-11-15T05:10:10.629Z,101042.41
2023-11-15T05:12:37.444Z,101051.47
2023-11-15T05:15:05.960Z,101052.28
2023-11-15T05:17:34.003Z,101048.78
2023-11-15T05:20:00.690Z,101056.88
2023-11-15T05:22:27.281Z,101060.41
2023-11-15T05:24:55.324Z,101060.06
2023-11-15T05:27:23.061Z,101060.91
2023-11-15T05:29:50.577Z,101061.34
2023-11-15T05:32:17.136Z,101073.59
2023-11-15T05:34:45.055Z,101076.59
2023-11-15T05:37:11.624Z,101077.47
2023-11-15T05:39:38.236Z,101079.09
2023-11-15T05:42:06.327Z,101078.81
2023-11-15T05:44:32.985Z,101073.94
2023-11-15T05:46:59.603Z,101082.09
2023-11-15T05:49:27.232Z,101081.88
2023-11-15T05:51:55.268Z,101088.22
2023-11-15T05:54:21.913Z,101096.56
2023-11-15T05:56:48.762Z,101097.97
2023-11-15T05:59:15.526Z,101102.22
2023-11-15T06:01:42.337Z,101106.00
2023-11-15T06:04:09.169Z,101105.28
2023-11-15T06:06:35.856Z,101119.38
2023-11-15T06:09:05.566Z,101118.47
2023-11-15T06:11:32.312Z,101114.53
2023-11-15T06:13:59.003Z,101104.19
2023-11-15T06:16:25.764Z,101109.31
2023-11-15T06:18:52.934Z,101110.94
2023-11-15T06:21:21.914Z,101109.44
2023-11-15T06:23:48.738Z,101106.72
2023-11-15T06:26:17.247Z,101115.63
2023-11-15T06:28:43.908Z,101106.94
2023-11-15T06:31:10.453Z,101112.34
2023-11-15T06:33:38.532Z,101104.38
2023-11-15T06:36:06.379Z,101108.56
2023-11-15T06:38:35.753Z,101102.50
2023-11-15T06:41:02.628Z,101114.31
2023-11-15T06:43:30.918Z,101116.41
2023-11-15T06:45:57.582Z,101115.16
2023-11-15T06:48:25.321Z,101117.50
2023-11-15T06:50:52.600Z,101119.28
2023-11-15T06:53:19.544Z,101125.34
2023-11-15T06:55:47.817Z,101127.34
2023-11-15T06:58:18.190Z,101128.13
2023-11-15T07:00:46.441Z,101125.94
2023-11-15T07:03:16.105Z,101127.78
2023-11-15T07:05:42.840Z,101138.88
2023-11-15T07:08:10.935Z,101136.16
2023-11-15T07:10:37.538Z,101147.72
2023-11-15T07:13:04.188Z,101153.63
2023-11-15T07:15:31.722Z,101154.97
2023-11-15T07:17:59.887Z,101166.59
2023-11-15T07:20:27.227Z,101169.06
2023-11-15T07:22:53.764Z,101172.41
2023-11-15T07:25:20.414Z,101179.72
2023-11-15T07:27:47.145Z,101172.56
2023-11-15T07:30:15.276Z,101184.47
2023-11-15T07:32:42.273Z,101187.41
2023-11-15T07:35:10.491Z,101188.78
2023-11-15T07:37:37.095Z,101191.56
2023-11-15T07:40:05.436Z,101196.63
2023-11-15T07:42:33.595Z,101201.78
2023-11-15T07:45:03.525Z,101204.81
2023-11-15T07:47:30.454Z,101208.09
2023-11-15T07:49:57.265Z,101203.75
2023-11-15T07:52:26.630Z,101205.44
2023-11-15T07:54:53.430Z,101212.44
2023-11-15T07:57:22.096Z,101211.94
2023-11-15T07:59:48.776Z,101214.56
2023-11-15T08:02:15.340Z,101211.59
2023-11-15T08:04:42.014Z,101214.38
2023-11-15T08:07:08.637Z,101209.88
2023-11-15T08:09:37.415Z,101219.81
2023-11-15T08:12:06.603Z,101209.16
2023-11-15T08:14:33.315Z,101208.91
2023-11-15T08:17:00.768Z,101218.84
2023-11-15T08:19:27.993Z,101222.63
2023-11-15T08:21:54.700Z,101220.34
2023-11-15T08:24:24.351Z,101220.75
2023-11-15T08:26:54.928Z,101224.63
2023-11-15T08:29:22.515Z,101222.25
2023-11-15T08:31:49.980Z,101225.97
2023-11-15T08:34:17.881Z,101227.69
2023-11-15T08:36:45.788Z,101227.25
2023-11-15T08:39:16.355Z,101233.50
2023-11-15T08:41:43.237Z,101226.75
2023-11-15T08:44:11.316Z,101233.09
2023-11-15T08:46:45.779Z,101239.91
2023-11-15T08:49:13.427Z,101242.34
2023-11-15T08:51:41.886Z,101248.88
2023-11-15T08:54:08.704Z,101251.50
2023-11-15T08:56:36.563Z,101198.41
2023-11-15T08:59:04.761Z,101256.47
2023-11-15T09:01:33.493Z,101263.06
2023-11-15T09:04:01.398Z,101264.56
2023-11-15T09:06:28.212Z,101265.72
2023-11-15T09:08:55.630Z,101275.56
2023-11-15T09:11:22.279Z,101267.97
2023-11-15T09:13:48.980Z,101266.06
2023-11-15T09:16:15.661Z,101265.84
2023-11-15T09:18:44.174Z,101281.56
2023-11-15T09:21:13.318Z,101276.63
2023-11-15T09:23:42.672Z,101274.91
2023-11-15T09:26:13.807Z,101278.41
2023-11-15T09:28:40.993Z,101281.50
2023-11-15T09:31:07.596Z,101286.38
2023-11-15T09:33:36.234Z,101284.84
2023-11-15T09:36:07.797Z,101284.78
2023-11-15T09:38:34.663Z,101290.94
2023-11-15T09:41:01.996Z,101300.41
2023-11-15T09:43:29.024Z,101306.41
2023-11-15T09:45:59.607Z,101301.47
2023-11-15T09:48:27.525Z,101301.31
2023-11-15T09:50:54.773Z,101306.78
2023-11-15T09:53:25.834Z,101309.91
2023-11-15T09:55:53.536Z,101310.06
2023-11-15T09:58:20.170Z,101308.47
2023-11-15T10:00:48.116Z,101308.25
2023-11-15T10:03:20.612Z,101309.41
2023-11-15T10:05:58.914Z,101310.19
2023-11-15T10:08:27.805Z,101309.81
2023-11-15T10:11:05.826Z,101307.19
2023-11-15T10:13:33.523Z,101302.13
2023-11-15T10:16:02.713Z,101302.88
2023-11-15T10:18:30.790Z,101305.16
2023-11-15T10:21:17.855Z,101300.44
2023-11-15T10:23:47.259Z,101301.97
2023-11-15T10:26:17.731Z,101302.91
2023-11-15T10:28:45.428Z,101305.81
2023-11-15T10:31:19.633Z,101306.84
2023-11-15T10:33:51.762Z,101308.22
2023-11-15T10:36:19.664Z,101319.50
2023-11-15T10:38:51.234Z,101313.41
2023-11-15T10:41:20.462Z,101313.03
2023-11-15T10:43:49.753Z,101309.94
2023-11-15T10:46:17.518Z,101312.84
2023-11-15T10:48:45.475Z,101295.13
2023-11-15T10:51:18.706Z,101309.44
2023-11-15T10:53:47.496Z,101307.31
2023-11-15T10:56:16.942Z,101319.19
2023-11-15T10:58:46.268Z,101313.00
2023-11-15T11:01:14.508Z,101312.19
2023-11-15T11:03:42.223Z,101312.63
2023-11-15T11:06:16.550Z,101314.94
2023-11-15T11:08:55.418Z,101322.78
2023-11-15T11:11:27.788Z,101317.88
2023-11-15T11:14:20.166Z,101318.16
2023-11-15T11:16:47.239Z,101320.16
2023-11-15T11:19:17.975Z,101322.78
2023-11-15T11:22:13.196Z,101320.00
2023-11-15T11:24:47.328Z,101322.31
2023-11-15T11:27:30.924Z,101322.41
2023-11-15T11:30:17.042Z,101321.66
2023-11-15T11:32:48.216Z,101312.75
2023-11-15T11:35:32.217Z,101316.41
2023-11-15T11:38:01.109Z,101331.72
2023-11-15T11:40:33.593Z,101327.38
2023-11-15T11:43:22.768Z,101323.44
2023-11-15T11:45:54.686Z,101307.69
2023-11-15T11:48:23.053Z,101328.22
2023-11-15T11:50:59.847Z,101328.03
2023-11-15T11:53:26.976Z,101315.84
2023-11-15T11:55:56.241Z,101316.78
2023-11-15T11:58:25.689Z,101325.69
2023-11-15T12:00:59.735Z,101311.44
2023-11-15T12:03:26.342Z,101309.44
2023-11-15T12:05:57.759Z,101310.50
2023-11-15T12:08:27.567Z,101304.56
2023-11-15T12:10:59.768Z,101306.53
2023-11-15T12:13:26.614Z,101304.69
2023-11-15T12:15:53.279Z,101307.03
2023-11-15T12:18:19.948Z,101293.47
2023-11-15T12:20:48.094Z,101301.28
2023-11-15T12:23:15.861Z,101300.25
2023-11-15T12:25:48.263Z,101297.81
2023-11-15T12:28:17.318Z,101304.06
2023-11-15T12:30:47.341Z,101302.31
2023-11-15T12:33:14.188Z,101302.50
2023-11-15T12:35:41.935Z,101306.34
2023-11-15T12:38:15.546Z,101308.28
2023-11-15T12:40:43.528Z,101312.38
2023-11-15T12:43:14.021Z,101299.66
2023-11-15T12:45:44.481Z,101315.94
2023-11-15T12:48:11.423Z,101312.28
2023-11-15T12:50:39.942Z,101322.00
2023-11-15T12:53:07.863Z,101308.38
2023-11-15T12:56:02.514Z,101310.16
2023-11-15T12:58:47.804Z,101304.47
2023-11-15T13:01:20.368Z,101294.19
2023-11-15T13:03:48.112Z,101297.34
2023-11-15T13:06:16.176Z,101314.22
2023-11-15T13:08:44.850Z,101308.66
2023-11-15T13:11:15.249Z,101305.41
2023-11-15T13:13:42.738Z,101312.38
2023-11-15T13:16:13.579Z,101297.97
2023-11-15T13:18:42.383Z,101294.31
2023-11-15T13:21:09.846Z,101310.06
2023-11-15T13:23:36.847Z,101304.78
2023-11-15T13:26:05.293Z,101308.31
2023-11-15T13:28:35.473Z,101304.69
2023-11-15T13:31:02.792Z,101306.22
2023-11-15T13:33:30.446Z,101306.13
2023-11-15T13:35:58.615Z,101309.03
2023-11-15T13:38:27.104Z,101308.56
2023-11-15T13:40:53.862Z,101305.84
2023-11-15T13:43:20.559Z,101313.09
2023-11-15T13:45:47.223Z,101320.31
2023-11-15T13:48:17.170Z,101311.88
2023-11-15T13:50:45.769Z,101315.19
2023-11-15T13:53:14.681Z,101322.13
2023-11-15T13:55:41.240Z,101306.81
2023-11-15T13:58:07.903Z,101313.13
2023-11-15T14:00:34.994Z,101318.00
2023-11-15T14:03:02.891Z,101316.25
2023-11-15T14:05:30.540Z,101323.50
2023-11-15T14:07:58.199Z,101322.91
2023-11-15T14:10:28.757Z,101319.56
2023-11-15T14:12:55.444Z,101324.19
2023-11-15T14:15:22.373Z,101342.59
2023-11-15T14:17:50.146Z,101345.50
2023-11-15T14:20:19.324Z,101342.81
2023-11-15T14:22:45.988Z,101330.81
2023-11-15T14:25:21.190Z,101329.69
2023-11-15T14:27:55.105Z,101340.97
2023-11-15T14:30:24.691Z,101348.28
2023-11-15T14:32:52.091Z,101348.84
2023-11-15T14:35:19.050Z,101356.44
2023-11-15T14:37:47.408Z,101353.56
2023-11-15T14:40:15.261Z,101345.84
2023-11-15T14:42:46.711Z,101355.03
2023-11-15T14:45:14.888Z,101354.66
2023-11-15T14:47:41.836Z,101351.44
2023-11-15T14:50:10.975Z,101358.56
2023-11-15T14:52:37.761Z,101355.88
2023-11-15T14:55:09.408Z,101360.22
2023-11-15T14:57:39.957Z,101367.06
2023-11-15T15:00:08.106Z,101365.38
2023-11-15T15:02:36.334Z,101355.31
2023-11-15T15:05:06.520Z,101363.53
2023-11-15T15:07:33.609Z,101368.00
2023-11-15T15:10:00.279Z,101376.78
2023-11-15T15:12:27.044Z,101379.69
2023-11-15T15:14:53.787Z,101385.09
2023-11-15T15:17:23.970Z,101378.56
2023-11-15T15:19:54.360Z,101360.13
2023-11-15T15:22:21.333Z,101379.28
2023-11-15T15:24:48.004Z,101384.84
2023-11-15T15:27:14.682Z,101388.25
2023-11-15T15:29:41.555Z,101383.63
2023-11-15T15:32:10.303Z,101393.75
2023-11-15T15:34:37.712Z,101397.41
2023-11-15T15:37:05.751Z,101393.66
2023-11-15T15:39:32.395Z,101392.91
2023-11-15T15:41:59.071Z,101391.81
2023-11-15T15:44:25.783Z,101389.84
2023-11-15T15:46:55.295Z,101392.31
2023-11-15T15:49:21.960Z,101388.91
2023-11-15T15:51:49.098Z,101397.81
2023-11-15T15:54:17.152Z,101398.56
2023-11-15T15:56:43.843Z,101407.41
2023-11-15T15:59:10.478Z,101407.84
2023-11-15T16:01:37.276Z,101416.50
2023-11-15T16:04:04.259Z,101421.50
2023-11-15T16:06:31.353Z,101417.31
2023-11-15T16:08:58.663Z,101409.31
2023-11-15T16:11:26.423Z,101426.16
2023-11-15T16:13:53.003Z,101429.19
2023-11-15T16:16:19.630Z,101422.00
2023-11-15T16:18:47.473Z,101432.75
2023-11-15T16:21:14.287Z,101422.69
2023-11-15T16:23:42.132Z,101426.59
2023-11-15T16:26:08.787Z,101435.16
2023-11-15T16:28:39.445Z,101424.53
2023-11-15T16:31:07.211Z,101426.31
2023-11-15T16:33:33.777Z,101426.91
2023-11-15T16:36:00.483Z,101435.72
2023-11-15T16:38:27.365Z,101429.91
2023-11-15T16:40:55.366Z,101441.78
2023-11-15T16:43:23.979Z,101442.75
2023-11-15T16:45:52.248Z,101442.84
2023-11-15T16:48:18.945Z,101445.78
2023-11-15T16:50:47.740Z,101440.88
2023-11-15T16:53:14.416Z,101452.81
2023-11-15T16:55:41.658Z,101455.47
2023-11-15T16:58:08.326Z,101463.84
2023-11-15T17:00:35.149Z,101468.47
2023-11-15T17:03:04.007Z,101474.53
2023-11-15T17:05:30.772Z,101471.63
2023-11-15T17:07:58.048Z,101474.53
2023-11-15T17:10:25.081Z,101468.59
2023-11-15T17:12:52.208Z,101471.91
2023-11-15T17:15:19.715Z,101468.97
2023-11-15T17:17:46.387Z,101474.28
2023-11-15T17:20:15.034Z,101470.19
2023-11-15T17:22:41.683Z,101483.72
2023-11-15T17:25:19.183Z,101483.06
2023-11-15T17:27:47.152Z,101481.78
2023-11-15T17:30:14.275Z,101492.75
2023-11-15T17:32:40.916Z,101493.38
2023-11-15T17:35:07.982Z,101492.00
2023-11-15T17:37:35.917Z,101496.94
2023-11-15T17:40:05.541Z,101501.50
2023-11-15T17:42:34.085Z,101506.19
2023-11-15T17:45:01.581Z,101514.38
2023-11-15T17:47:28.063Z,101507.94
2023-11-15T17:49:55.965Z,101486.75
2023-11-15T17:52:22.696Z,101506.03
2023-11-15T17:54:51.683Z,101507.81
2023-11-15T17:57:18.316Z,101508.59
2023-11-15T17:59:44.864Z,101505.00
2023-11-15T18:02:11.413Z,101507.81
2023-11-15T18:04:38.388Z,101510.91
2023-11-15T18:07:06.317Z,101502.84
2023-11-15T18:09:34.320Z,101490.19
2023-11-15T18:12:02.588Z,101491.69
2023-11-15T18:14:29.240Z,101494.56
2023-11-15T18:16:56.642Z,101501.09
2023-11-15T18:19:23.394Z,101509.06
2023-11-15T18:21:51.758Z,101505.16
2023-11-15T18:24:18.601Z,101507.38
2023-11-15T18:26:46.403Z,101503.44
2023-11-15T18:29:14.711Z,101509.72
2023-11-15T18:31:41.323Z,101514.66
2023-11-15T18:34:08.126Z,101510.38
2023-11-15T18:36:36.234Z,101514.44
2023-11-15T18:39:03.125Z,101504.56
2023-11-15T18:41:29.742Z,101506.34
2023-11-15T18:43:58.043Z,101502.38
2023-11-15T18:46:27.472Z,101496.44
2023-11-15T18:48:54.200Z,101491.84
2023-11-15T18:51:23.784Z,101498.81
2023-11-15T18:53:51.050Z,101495.28
2023-11-15T18:56:17.715Z,101483.50
2023-11-15T18:58:45.020Z,101488.88
2023-11-15T19:01:11.618Z,101501.94
2023-11-15T19:03:40.299Z,101493.63
2023-11-15T19:06:09.191Z,101498.91
2023-11-15T19:08:35.839Z,101505.88
2023-11-15T19:11:03.354Z,101507.84
2023-11-15T19:13:29.965Z,101509.97
2023-11-15T19:15:59.038Z,101506.09
2023-11-15T19:18:26.935Z,101507.97
2023-11-15T19:20:55.005Z,101513.25
2023-11-15T19:23:23.383Z,101514.16
2023-11-15T19:25:50.096Z,101498.69
2023-11-15T19:28:17.121Z,101498.84
2023-11-15T19:30:50.075Z,101493.88
2023-11-15T19:33:16.889Z,101509.00
2023-11-15T19:35:43.725Z,101508.50
2023-11-15T19:38:13.612Z,101503.00
2023-11-15T19:40:40.183Z,101511.63
2023-11-15T19:43:07.300Z,101504.75
2023-11-15T19:45:34.310Z,101510.25
2023-11-15T19:48:01.025Z,101510.41
2023-11-15T19:50:27.759Z,101502.81
2023-11-15T19:52:54.323Z,101512.88
2023-11-15T19:55:22.344Z,101499.31
2023-11-15T19:57:48.952Z,101510.16
2023-11-15T20:00:17.670Z,101507.16
2023-11-15T20:02:47.139Z,101511.75
2023-11-15T20:05:14.849Z,101509.50
2023-11-15T20:07:41.510Z,101506.75
2023-11-15T20:10:10.200Z,101504.28
2023-11-15T20:12:39.362Z,101485.44
2023-11-15T20:15:08.238Z,101509.31
2023-11-15T20:17:35.217Z,101498.53
2023-11-15T20:20:01.961Z,101501.06
2023-11-15T20:22:35.118Z,101495.03
2023-11-15T20:25:08.261Z,101494.25
2023-11-15T20:27:34.961Z,101488.63
2023-11-15T20:30:03.539Z,101484.84
2023-11-15T20:32:31.743Z,101489.78
2023-11-15T20:34:58.421Z,101490.69
2023-11-15T20:37:25.208Z,101490.28
2023-11-15T20:39:52.014Z,101482.63
2023-11-15T20:42:18.675Z,101488.50
2023-11-15T20:44:45.208Z,101479.00
2023-11-15T20:47:14.899Z,101489.59
2023-11-15T20:49:42.213Z,101484.16
2023-11-15T20:52:09.254Z,101481.13
2023-11-15T20:54:35.937Z,101481.78
2023-11-15T20:57:02.581Z,101484.00
2023-11-15T20:59:29.184Z,101479.06
2023-11-15T21:01:55.794Z,101486.59
2023-11-15T21:04:25.647Z,101489.72
2023-11-15T21:06:55.436Z,101488.56
2023-11-15T21:09:24.824Z,101487.78
2023-11-15T21:11:53.688Z,101489.06
2023-11-15T21:14:20.323Z,101491.50
2023-11-15T21:16:46.898Z,101492.47
2023-11-15T21:19:13.486Z,101494.69
2023-11-15T21:21:41.723Z,101494.78
2023-11-15T21:24:09.630Z,101486.66
2023-11-15T21:26:36.601Z,101489.78
2023-11-15T21:29:09.437Z,101479.41
2023-11-15T21:31:37.666Z,101485.44
2023-11-15T21:34:06.856Z,101484.41
2023-11-15T21:36:33.661Z,101487.00
2023-11-15T21:39:03.574Z,101489.06
2023-11-15T21:41:31.397Z,101487.63
2023-11-15T21:44:00.374Z,101489.47
2023-11-15T21:46:28.679Z,101482.03
2023-11-15T21:48:56.279Z,101486.41
2023-11-15T21:51:23.049Z,101484.34
2023-11-15T21:53:52.301Z,101484.34
2023-11-15T21:56:21.860Z,101481.34
2023-11-15T21:58:48.679Z,101482.75
2023-11-15T22:01:15.502Z,101480.09
2023-11-15T22:03:42.850Z,101475.22
2023-11-15T22:06:09.851Z,101478.38
2023-11-15T22:08:36.538Z,101486.63
2023-11-15T22:11:04.694Z,101488.63
2023-11-15T22:13:32.760Z,101490.28
2023-11-15T22:15:59.566Z,101432.75
2023-11-15T22:18:28.769Z,101485.91
2023-11-15T22:20:56.186Z,101486.72
2023-11-15T22:23:22.793Z,101491.69
2023-11-15T22:25:49.383Z,101495.19
2023-11-15T22:28:16.091Z,101492.25
2023-11-15T22:30:44.242Z,101481.56
2023-11-15T22:33:12.008Z,101489.03
2023-11-15T22:35:38.713Z,101496.91
2023-11-15T22:38:05.313Z,101495.53
2023-11-15T22:40:31.940Z,101496.56
2023-11-15T22:43:04.247Z,101487.56
2023-11-15T22:45:31.595Z,101496.50
2023-11-15T22:47:59.963Z,101493.78
2023-11-15T22:50:26.802Z,101500.41
2023-11-15T22:52:53.344Z,101497.81
2023-11-15T22:55:19.919Z,101499.75
2023-11-15T22:57:46.504Z,101498.19
2023-11-15T23:00:27.166Z,101507.25
2023-11-15T23:02:54.565Z,101505.56
2023-11-15T23:05:22.747Z,101501.31
2023-11-15T23:07:49.544Z,101501.47
2023-11-15T23:10:16.767Z,101504.06
2023-11-15T23:12:43.425Z,101502.06
2023-11-15T23:15:12.212Z,101500.28
2023-11-15T23:17:39.241Z,101481.59
2023-11-15T23:20:07.923Z,101502.16
2023-11-15T23:22:36.428Z,101505.44
2023-11-15T23:25:03.227Z,101510.59
2023-11-15T23:27:29.917Z,101507.69
2023-11-15T23:29:57.248Z,101509.16
2023-11-15T23:32:24.063Z,101514.25
2023-11-15T23:34:50.693Z,101510.47
2023-11-15T23:37:17.803Z,101499.69
2023-11-15T23:39:48.576Z,101506.44
2023-11-15T23:42:15.524Z,101503.84
2023-11-15T23:44:42.608Z,101499.44
2023-11-15T23:47:09.763Z,101506.25
2023-11-15T23:49:37.632Z,101474.41
2023-11-15T23:52:06.118Z,101496.91
2023-11-15T23:54:38.389Z,101488.28
2023-11-15T23:57:09.189Z,101499.97
2023-11-15T23:59:36.022Z,101493.53
